createdAt,value
2022-09-09T00:01:04.421Z,99.90
2022-09-09T00:03:52.424Z,99.90
2022-09-09T00:06:36.448Z,99.90
2022-09-09T00:09:13.583Z,99.90
2022-09-09T00:11:54.207Z,99.90
2022-09-09T00:14:35.607Z,99.90
2022-09-09T00:17:16.234Z,99.90
2022-09-09T00:19:51.454Z,99.90
2022-09-09T00:22:21.868Z,99.90
2022-09-09T00:24:56.869Z,99.90
2022-09-09T00:27:41.221Z,99.90
2022-09-09T00:30:23.943Z,99.90
2022-09-09T00:33:02.674Z,99.90
2022-09-09T00:35:39.097Z,99.90
2022-09-09T00:38:19.411Z,99.90
2022-09-09T00:41:27.302Z,99.90
2022-09-09T00:44:20.143Z,99.90
2022-09-09T00:46:55.971Z,99.90
2022-09-09T00:49:39.562Z,99.90
2022-09-09T00:52:32.645Z,99.90
2022-09-09T00:55:16.369Z,99.90
2022-09-09T00:57:43.546Z,99.90
2022-09-09T01:00:21.115Z,99.90
2022-09-09T01:02:53.894Z,99.90
2022-09-09T01:05:29.646Z,99.90
2022-09-09T01:07:59.367Z,99.90
2022-09-09T01:10:47.177Z,99.90
2022-09-09T01:13:35.611Z,99.90
2022-09-09T01:16:05.196Z,99.90
2022-09-09T01:18:45.034Z,99.90
2022-09-09T01:21:27.001Z,99.90
2022-09-09T01:23:57.163Z,99.90
2022-09-09T01:26:48.172Z,99.90
2022-09-09T01:29:18.705Z,99.90
2022-09-09T01:32:23.601Z,99.90
2022-09-09T01:34:52.420Z,99.90
2022-09-09T01:37:19.448Z,99.90
2022-09-09T01:39:46.468Z,99.90
2022-09-09T01:42:17.137Z,99.90
2022-09-09T01:44:44.019Z,99.90
2022-09-09T01:47:11.192Z,99.90
2022-09-09T01:49:38.039Z,99.90
2022-09-09T01:52:05.149Z,99.90
2022-09-09T01:54:34.028Z,99.90
2022-09-09T01:57:18.878Z,99.90
2022-09-09T02:00:00.827Z,99.90
2022-09-09T02:03:20.379Z,99.90
2022-09-09T02:05:57.229Z,99.90
2022-09-09T02:08:51.612Z,99.90
2022-09-09T02:11:21.414Z,99.90
2022-09-09T02:13:50.630Z,99.90
2022-09-09T02:16:31.393Z,99.90
2022-09-09T02:19:26.798Z,99.90
2022-09-09T02:21:56.851Z,99.90
2022-09-09T02:24:23.999Z,99.90
2022-09-09T02:26:54.057Z,99.90
2022-09-09T02:29:26.502Z,99.90
2022-09-09T02:31:57.533Z,99.90
2022-09-09T02:34:25.865Z,99.90
2022-09-09T02:36:54.897Z,99.90
2022-09-09T02:39:23.022Z,99.90
2022-09-09T02:41:49.871Z,99.90
2022-09-09T02:44:18.967Z,99.90
2022-09-09T02:47:03.707Z,99.90
2022-09-09T02:50:09.700Z,99.90
2022-09-09T02:52:42.338Z,99.90
2022-09-09T02:55:18.651Z,99.90
2022-09-09T02:57:48.544Z,99.90
2022-09-09T03:00:15.935Z,99.90
2022-09-09T03:02:43.447Z,99.90
2022-09-09T03:05:10.403Z,99.90
2022-09-09T03:07:37.192Z,99.90
2022-09-09T03:10:05.125Z,99.90
2022-09-09T03:12:32.297Z,99.90
2022-09-09T03:14:59.095Z,99.90
2022-09-09T03:17:26.014Z,99.90
2022-09-09T03:19:55.489Z,99.90
2022-09-09T03:22:22.546Z,99.90
2022-09-09T03:24:49.325Z,99.90
2022-09-09T03:27:16.211Z,99.90
2022-09-09T03:29:43.030Z,99.90
2022-09-09T03:32:11.738Z,99.90
2022-09-09T03:34:41.260Z,99.90
2022-09-09T03:37:08.377Z,99.90
2022-09-09T03:39:35.249Z,99.90
2022-09-09T03:42:04.962Z,99.90
2022-09-09T03:44:31.937Z,99.90
2022-09-09T03:47:01.072Z,99.90
2022-09-09T03:49:29.619Z,99.90
2022-09-09T03:51:58.241Z,99.90
2022-09-09T03:54:26.205Z,99.90
2022-09-09T03:56:53.070Z,99.90
2022-09-09T03:59:20.144Z,99.90
2022-09-09T04:01:48.201Z,99.90
2022-09-09T04:04:15.109Z,99.90
2022-09-09T04:06:41.956Z,99.90
2022-09-09T04:09:08.776Z,99.90
2022-09-09T04:11:35.720Z,99.90
2022-09-09T04:14:02.576Z,99.90
2022-09-09T04:16:29.612Z,99.90
2022-09-09T04:18:57.168Z,99.90
2022-09-09T04:21:24.316Z,99.90
2022-09-09T04:23:51.137Z,99.90
2022-09-09T04:26:18.499Z,99.90
2022-09-09T04:28:45.488Z,99.90
2022-09-09T04:31:21.290Z,99.90
2022-09-09T04:33:48.314Z,99.90
2022-09-09T04:36:15.243Z,99.90
2022-09-09T04:38:42.355Z,99.90
2022-09-09T04:41:12.020Z,99.90
2022-09-09T04:43:40.033Z,99.90
2022-09-09T04:46:07.353Z,99.90
2022-09-09T04:48:34.312Z,99.90
2022-09-09T04:51:06.783Z,99.90
2022-09-09T04:53:37.189Z,99.90
2022-09-09T04:56:05.666Z,99.90
2022-09-09T04:58:33.276Z,99.90
2022-09-09T05:01:29.846Z,99.90
2022-09-09T05:03:56.739Z,99.90
2022-09-09T05:06:24.230Z,99.90
2022-09-09T05:08:51.675Z,99.90
2022-09-09T05:11:20.968Z,99.90
2022-09-09T05:13:48.145Z,99.90
2022-09-09T05:16:15.568Z,99.90
2022-09-09T05:18:47.135Z,99.90
2022-09-09T05:21:15.889Z,99.90
2022-09-09T05:23:42.774Z,99.90
2022-09-09T05:26:17.460Z,99.90
2022-09-09T05:28:45.345Z,99.90
2022-09-09T05:31:13.874Z,99.90
2022-09-09T05:33:44.094Z,99.90
2022-09-09T05:36:16.614Z,99.90
2022-09-09T05:38:44.332Z,99.90
2022-09-09T05:41:12.746Z,99.90
2022-09-09T05:43:40.056Z,99.90
2022-09-09T05:46:09.477Z,99.90
2022-09-09T05:48:38.677Z,99.90
2022-09-09T05:51:07.948Z,99.90
2022-09-09T05:53:37.897Z,99.90
2022-09-09T05:56:13.392Z,99.90
2022-09-09T05:58:40.274Z,99.90
2022-09-09T06:01:08.656Z,99.90
2022-09-09T06:03:36.758Z,99.90
2022-09-09T06:06:06.677Z,99.90
2022-09-09T06:08:39.423Z,99.90
2022-09-09T06:11:11.742Z,99.90
2022-09-09T06:13:40.678Z,99.90
2022-09-09T06:16:13.870Z,99.90
2022-09-09T06:18:41.669Z,99.90
2022-09-09T06:21:15.603Z,99.90
2022-09-09T06:23:42.960Z,99.90
2022-09-09T06:26:15.457Z,99.90
2022-09-09T06:28:43.785Z,99.90
2022-09-09T06:31:12.744Z,99.90
2022-09-09T06:33:45.424Z,99.90
2022-09-09T06:36:19.520Z,99.90
2022-09-09T06:38:47.131Z,99.90
2022-09-09T06:41:17.491Z,99.90
2022-09-09T06:43:44.320Z,98.60
2022-09-09T06:46:20.037Z,96.80
2022-09-09T06:48:47.489Z,97.30
2022-09-09T06:51:25.136Z,93.90
2022-09-09T06:53:54.580Z,94.10
2022-09-09T06:56:29.138Z,95.30
2022-09-09T06:58:58.008Z,92.70
2022-09-09T07:01:31.598Z,91.60
2022-09-09T07:04:02.956Z,91.60
2022-09-09T07:06:35.621Z,95.20
2022-09-09T07:09:05.342Z,89.40
2022-09-09T07:11:35.358Z,88.40
2022-09-09T07:14:02.529Z,86.80
2022-09-09T07:16:30.575Z,88.60
2022-09-09T07:18:58.939Z,83.00
2022-09-09T07:21:30.433Z,78.50
2022-09-09T07:23:58.140Z,78.40
2022-09-09T07:26:28.062Z,79.10
2022-09-09T07:28:57.420Z,81.10
2022-09-09T07:31:43.939Z,79.60
2022-09-09T07:34:10.839Z,76.50
2022-09-09T07:36:40.209Z,78.30
2022-09-09T07:39:10.178Z,78.50
2022-09-09T07:41:42.948Z,79.30
2022-09-09T07:44:12.610Z,75.60
2022-09-09T07:46:42.955Z,74.10
2022-09-09T07:49:11.014Z,71.50
2022-09-09T07:51:41.946Z,71.60
2022-09-09T07:54:12.336Z,70.10
2022-09-09T07:56:40.847Z,70.60
2022-09-09T07:59:08.110Z,68.30
2022-09-09T08:01:40.821Z,67.60
2022-09-09T08:04:17.528Z,68.20
2022-09-09T08:06:51.094Z,66.50
2022-09-09T08:09:18.393Z,64.90
2022-09-09T08:11:45.993Z,65.70
2022-09-09T08:14:13.589Z,65.50
2022-09-09T08:16:43.505Z,64.70
2022-09-09T08:19:10.897Z,64.70
2022-09-09T08:21:41.015Z,63.40
2022-09-09T08:24:09.902Z,62.70
2022-09-09T08:26:45.056Z,65.00
2022-09-09T08:29:14.845Z,63.60
2022-09-09T08:32:12.589Z,67.30
2022-09-09T08:34:41.326Z,63.80
2022-09-09T08:37:08.267Z,65.60
2022-09-09T08:39:35.198Z,65.10
2022-09-09T08:42:17.278Z,63.60
2022-09-09T08:45:02.619Z,63.60
2022-09-09T08:47:46.595Z,62.30
2022-09-09T08:50:25.704Z,62.40
2022-09-09T08:53:00.541Z,63.60
2022-09-09T08:55:37.013Z,64.40
2022-09-09T08:58:20.917Z,62.30
2022-09-09T09:00:53.915Z,60.30
2022-09-09T09:03:37.558Z,61.70
2022-09-09T09:06:08.129Z,61.40
2022-09-09T09:08:39.161Z,66.00
2022-09-09T09:11:07.303Z,90.00
2022-09-09T09:13:41.754Z,65.90
2022-09-09T09:16:44.401Z,61.70
2022-09-09T09:19:15.970Z,61.00
2022-09-09T09:21:44.913Z,65.40
2022-09-09T09:24:26.853Z,61.80
2022-09-09T09:26:54.116Z,61.90
2022-09-09T09:29:22.629Z,61.00
2022-09-09T09:32:00.154Z,62.20
2022-09-09T09:34:26.979Z,60.70
2022-09-09T09:37:03.843Z,58.30
2022-09-09T09:42:24.835Z,60.70
2022-09-09T09:44:51.930Z,58.10
2022-09-09T09:47:21.658Z,58.00
2022-09-09T09:49:56.557Z,58.40
2022-09-09T09:52:26.628Z,56.30
2022-09-09T09:54:54.760Z,56.00
2022-09-09T09:57:30.281Z,56.50
2022-09-09T10:00:22.535Z,56.80
2022-09-09T10:02:52.804Z,57.50
2022-09-09T10:05:26.594Z,58.30
2022-09-09T10:08:12.062Z,57.20
2022-09-09T10:11:18.436Z,55.80
2022-09-09T10:13:51.476Z,56.20
2022-09-09T10:17:06.015Z,57.10
2022-09-09T10:19:34.689Z,57.20
2022-09-09T10:22:36.885Z,56.50
2022-09-09T10:25:12.857Z,58.20
2022-09-09T10:27:57.796Z,56.70
2022-09-09T10:30:34.790Z,56.40
2022-09-09T10:33:07.506Z,56.20
2022-09-09T10:36:04.027Z,55.90
2022-09-09T10:38:39.607Z,56.40
2022-09-09T10:41:16.776Z,56.70
2022-09-09T10:43:46.407Z,56.70
2022-09-09T10:46:37.082Z,56.00
2022-09-09T10:49:31.991Z,57.30
2022-09-09T10:52:39.860Z,57.90
2022-09-09T10:55:20.724Z,56.70
2022-09-09T10:57:53.258Z,57.40
2022-09-09T11:00:26.074Z,57.50
2022-09-09T11:03:04.357Z,57.20
2022-09-09T11:05:34.929Z,57.30
2022-09-09T11:08:20.552Z,56.30
2022-09-09T11:11:04.642Z,56.50
2022-09-09T11:13:35.732Z,58.10
2022-09-09T11:16:38.016Z,58.20
2022-09-09T11:19:12.782Z,58.70
2022-09-09T11:21:48.410Z,55.10
2022-09-09T11:24:41.713Z,56.70
2022-09-09T11:27:15.355Z,55.70
2022-09-09T11:30:53.844Z,56.80
2022-09-09T11:33:33.289Z,55.80
2022-09-09T11:36:24.211Z,56.70
2022-09-09T11:39:03.854Z,55.80
2022-09-09T11:41:38.256Z,55.80
2022-09-09T11:44:14.865Z,56.60
2022-09-09T11:46:42.824Z,54.20
2022-09-09T11:49:46.764Z,55.40
2022-09-09T11:52:27.757Z,53.30
2022-09-09T11:54:57.322Z,53.50
2022-09-09T11:57:35.347Z,54.40
2022-09-09T12:00:03.660Z,54.80
2022-09-09T12:02:34.026Z,53.90
2022-09-09T12:05:13.556Z,56.30
2022-09-09T12:07:47.680Z,54.50
2022-09-09T12:10:23.840Z,53.20
2022-09-09T12:12:50.688Z,53.30
2022-09-09T12:15:21.693Z,53.60
2022-09-09T12:17:51.844Z,53.90
2022-09-09T12:20:20.874Z,54.30
2022-09-09T12:23:20.238Z,53.90
2022-09-09T12:26:16.544Z,52.60
2022-09-09T12:29:02.072Z,53.70
2022-09-09T12:31:49.506Z,53.80
2022-09-09T12:34:37.957Z,53.10
2022-09-09T12:37:29.689Z,53.00
2022-09-09T12:39:57.736Z,51.30
2022-09-09T12:42:25.697Z,51.30
2022-09-09T12:45:04.410Z,52.40
2022-09-09T12:47:51.615Z,52.50
2022-09-09T12:50:28.962Z,53.30
2022-09-09T12:52:59.589Z,52.10
2022-09-09T12:55:32.042Z,52.10
2022-09-09T12:58:00.548Z,52.20
2022-09-09T13:00:29.108Z,51.20
2022-09-09T13:02:58.370Z,52.00
2022-09-09T13:05:34.914Z,51.80
2022-09-09T13:08:11.295Z,51.10
2022-09-09T13:11:00.149Z,53.60
2022-09-09T13:13:39.123Z,51.80
2022-09-09T13:16:19.737Z,51.20
2022-09-09T13:18:47.489Z,52.50
2022-09-09T13:21:15.321Z,54.70
2022-09-09T13:23:42.389Z,55.40
2022-09-09T13:26:27.037Z,54.70
2022-09-09T13:28:55.230Z,52.10
2022-09-09T13:31:28.664Z,54.40
2022-09-09T13:33:55.880Z,54.30
2022-09-09T13:36:35.868Z,53.50
2022-09-09T13:39:05.050Z,53.30
2022-09-09T13:41:36.713Z,52.30
2022-09-09T13:44:09.893Z,52.10
2022-09-09T13:46:41.641Z,56.50
2022-09-09T13:49:11.240Z,52.50
2022-09-09T13:51:43.325Z,53.20
2022-09-09T13:54:11.932Z,52.60
2022-09-09T13:56:40.784Z,51.20
2022-09-09T13:59:12.190Z,51.70
2022-09-09T14:01:39.173Z,52.20
2022-09-09T14:04:09.795Z,52.60
2022-09-09T14:06:40.336Z,52.80
2022-09-09T14:09:08.766Z,54.40
2022-09-09T14:11:35.771Z,52.60
2022-09-09T14:14:02.689Z,53.20
2022-09-09T14:16:30.349Z,53.10
2022-09-09T14:18:57.705Z,52.70
2022-09-09T14:21:25.567Z,53.60
2022-09-09T14:23:53.848Z,52.50
2022-09-09T14:26:24.990Z,52.20
2022-09-09T14:28:56.371Z,52.20
2022-09-09T14:31:24.689Z,51.30
2022-09-09T14:33:52.114Z,51.40
2022-09-09T14:36:19.352Z,53.40
2022-09-09T14:38:46.674Z,52.60
2022-09-09T14:41:17.943Z,51.40
2022-09-09T14:43:45.871Z,50.80
2022-09-09T14:46:17.875Z,52.40
2022-09-09T14:48:46.192Z,52.40
2022-09-09T14:51:20.589Z,53.20
2022-09-09T14:53:48.136Z,50.90
2022-09-09T14:56:18.326Z,51.20
2022-09-09T14:58:46.002Z,51.60
2022-09-09T15:01:15.499Z,51.00
2022-09-09T15:03:44.524Z,50.70
2022-09-09T15:06:14.124Z,53.80
2022-09-09T15:08:43.782Z,51.20
2022-09-09T15:11:12.439Z,51.60
2022-09-09T15:13:40.956Z,49.80
2022-09-09T15:16:10.603Z,50.20
2022-09-09T15:18:37.677Z,49.70
2022-09-09T15:21:06.003Z,49.90
2022-09-09T15:23:34.434Z,50.80
2022-09-09T15:26:01.523Z,52.20
2022-09-09T15:28:28.721Z,54.00
2022-09-09T15:30:56.041Z,53.40
2022-09-09T15:33:23.637Z,53.10
2022-09-09T15:35:50.886Z,53.60
2022-09-09T15:38:18.432Z,55.20
2022-09-09T15:40:45.672Z,53.90
2022-09-09T15:43:14.112Z,54.30
2022-09-09T15:45:40.994Z,53.20
2022-09-09T15:48:08.543Z,54.10
2022-09-09T15:50:35.397Z,54.40
2022-09-09T15:53:02.253Z,54.10
2022-09-09T15:55:30.097Z,56.30
2022-09-09T15:57:58.750Z,55.90
2022-09-09T16:00:26.193Z,55.20
2022-09-09T16:02:54.235Z,55.40
2022-09-09T16:05:21.954Z,56.80
2022-09-09T16:07:49.076Z,58.30
2022-09-09T16:10:16.264Z,56.60
2022-09-09T16:12:43.468Z,57.60
2022-09-09T16:15:10.748Z,59.30
2022-09-09T16:17:38.988Z,59.70
2022-09-09T16:20:09.349Z,59.30
2022-09-09T16:22:38.709Z,61.80
2022-09-09T16:25:05.993Z,58.80
2022-09-09T16:27:33.259Z,60.00
2022-09-09T16:30:00.377Z,60.10
2022-09-09T16:32:27.276Z,62.50
2022-09-09T16:34:54.112Z,64.40
2022-09-09T16:37:20.945Z,64.80
2022-09-09T16:39:47.838Z,64.30
2022-09-09T16:42:14.695Z,62.90
2022-09-09T16:44:42.268Z,63.20
2022-09-09T16:47:09.102Z,65.60
2022-09-09T16:49:35.952Z,66.40
2022-09-09T16:52:03.021Z,65.80
2022-09-09T16:54:30.339Z,66.50
2022-09-09T16:56:57.319Z,65.20
2022-09-09T16:59:24.598Z,66.60
2022-09-09T17:01:52.792Z,68.10
2022-09-09T17:04:24.933Z,70.10
2022-09-09T17:06:53.763Z,70.60
2022-09-09T17:09:22.178Z,68.40
2022-09-09T17:11:51.783Z,68.90
2022-09-09T17:14:19.963Z,71.00
2022-09-09T17:16:47.653Z,71.10
2022-09-09T17:19:15.906Z,73.00
2022-09-09T17:22:05.996Z,72.10
2022-09-09T17:24:30.311Z,70.90
2022-09-09T17:26:58.343Z,79.20
2022-09-09T17:29:26.033Z,73.60
2022-09-09T17:31:53.024Z,73.10
2022-09-09T17:34:19.890Z,76.40
2022-09-09T17:36:46.742Z,79.70
2022-09-09T17:39:13.702Z,74.60
2022-09-09T17:41:41.124Z,77.60
2022-09-09T17:44:10.735Z,79.50
2022-09-09T17:46:41.491Z,76.60
2022-09-09T17:49:11.084Z,78.80
2022-09-09T17:51:37.920Z,80.50
2022-09-09T17:54:13.242Z,77.40
2022-09-09T17:56:42.281Z,76.80
2022-09-09T17:59:11.306Z,80.70
2022-09-09T18:01:40.446Z,80.00
2022-09-09T18:04:09.894Z,79.20
2022-09-09T18:06:42.240Z,81.50
2022-09-09T18:09:13.334Z,78.80
2022-09-09T18:11:45.255Z,78.40
2022-09-09T18:14:16.338Z,83.00
2022-09-09T18:16:43.515Z,78.20
2022-09-09T18:19:13.948Z,79.80
2022-09-09T18:21:42.683Z,79.20
2022-09-09T18:24:11.712Z,81.40
2022-09-09T18:26:40.750Z,80.50
2022-09-09T18:29:11.293Z,79.90
2022-09-09T18:31:39.175Z,82.10
2022-09-09T18:34:10.068Z,87.90
2022-09-09T18:36:41.214Z,83.30
2022-09-09T18:39:08.846Z,86.00
2022-09-09T18:41:38.653Z,90.30
2022-09-09T18:44:10.022Z,87.30
2022-09-09T18:46:37.904Z,88.00
2022-09-09T18:49:05.911Z,87.70
2022-09-09T18:51:35.380Z,89.00
2022-09-09T18:54:06.017Z,90.10
2022-09-09T18:56:32.889Z,91.40
2022-09-09T18:59:01.397Z,89.90
2022-09-09T19:01:29.407Z,92.50
2022-09-09T19:03:59.331Z,90.70
2022-09-09T19:06:30.916Z,91.40
2022-09-09T19:09:03.739Z,92.50
2022-09-09T19:11:32.861Z,93.30
2022-09-09T19:14:03.036Z,93.00
2022-09-09T19:16:32.697Z,93.00
2022-09-09T19:19:04.434Z,93.80
2022-09-09T19:21:34.224Z,93.20
2022-09-09T19:24:31.087Z,93.50
2022-09-09T19:27:09.865Z,93.70
2022-09-09T19:29:39.527Z,94.20
2022-09-09T19:34:53.476Z,95.10
2022-09-09T19:37:20.694Z,95.40
2022-09-09T19:39:48.833Z,96.80
2022-09-09T19:42:16.160Z,96.10
2022-09-09T19:44:43.142Z,98.10
2022-09-09T19:47:10.007Z,96.80
2022-09-09T19:49:37.255Z,98.90
2022-09-09T19:52:04.600Z,98.80
2022-09-09T19:54:31.605Z,99.60
2022-09-09T19:56:59.866Z,98.70
2022-09-09T19:59:27.531Z,98.40
2022-09-09T20:01:56.891Z,99.90
2022-09-09T20:04:24.044Z,99.90
2022-09-09T20:06:53.309Z,99.90
2022-09-09T20:09:21.144Z,99.90
2022-09-09T20:11:49.235Z,99.90
2022-09-09T20:14:17.166Z,99.90
2022-09-09T20:16:45.684Z,99.90
2022-09-09T20:19:16.216Z,99.90
2022-09-09T20:21:47.796Z,99.90
2022-09-09T20:24:16.997Z,99.90
2022-09-09T20:26:44.933Z,99.90
2022-09-09T20:29:16.352Z,99.90
2022-09-09T20:31:43.936Z,99.90
2022-09-09T20:34:14.433Z,99.90
2022-09-09T20:36:42.404Z,99.90
2022-09-09T20:39:12.250Z,99.90
2022-09-09T20:41:40.435Z,99.90
2022-09-09T20:44:12.430Z,99.90
2022-09-09T20:46:43.070Z,99.90
2022-09-09T20:49:11.719Z,99.90
2022-09-09T20:51:39.229Z,99.90
2022-09-09T20:54:12.107Z,99.90
2022-09-09T20:56:40.922Z,99.90
2022-09-09T20:59:11.609Z,99.90
2022-09-09T21:01:39.679Z,99.90
2022-09-09T21:04:07.065Z,99.90
2022-09-09T21:06:34.112Z,99.90
2022-09-09T21:09:01.303Z,99.90
2022-09-09T21:11:28.209Z,99.90
2022-09-09T21:13:56.475Z,99.90
2022-09-09T21:16:24.440Z,99.90
2022-09-09T21:18:51.324Z,99.90
2022-09-09T21:21:21.930Z,99.90
2022-09-09T21:23:49.925Z,99.90
2022-09-09T21:26:20.412Z,99.90
2022-09-09T21:28:47.266Z,99.90
2022-09-09T21:31:19.366Z,99.90
2022-09-09T21:33:47.027Z,99.90
2022-09-09T21:36:14.761Z,99.90
2022-09-09T21:38:42.776Z,99.90
2022-09-09T21:41:15.211Z,99.90
2022-09-09T21:43:43.500Z,99.90
2022-09-09T21:46:12.909Z,99.90
2022-09-09T21:48:39.937Z,99.90
2022-09-09T21:51:14.684Z,99.90
2022-09-09T21:53:41.543Z,99.90
2022-09-09T21:56:12.234Z,99.90
2022-09-09T21:58:40.891Z,99.90
2022-09-09T22:01:17.147Z,99.90
2022-09-09T22:03:45.171Z,99.90
2022-09-09T22:06:14.750Z,99.90
2022-09-09T22:08:42.800Z,99.90
2022-09-09T22:11:15.052Z,99.90
2022-09-09T22:13:42.703Z,99.90
2022-09-09T22:16:12.276Z,99.90
2022-09-09T22:18:39.759Z,99.90
2022-09-09T22:21:13.165Z,99.90
2022-09-09T22:23:40.132Z,99.90
2022-09-09T22:26:07.693Z,99.90
2022-09-09T22:28:35.590Z,99.90
2022-09-09T22:31:02.546Z,99.90
2022-09-09T22:33:29.679Z,99.90
2022-09-09T22:35:56.708Z,99.90
2022-09-09T22:38:23.895Z,99.90
2022-09-09T22:40:51.918Z,99.90
2022-09-09T22:43:21.205Z,99.90
2022-09-09T22:45:48.943Z,99.90
2022-09-09T22:48:16.131Z,99.90
2022-09-09T22:50:43.252Z,99.90
2022-09-09T22:53:13.936Z,99.90
2022-09-09T22:55:41.597Z,99.90
2022-09-09T22:58:09.007Z,99.90
2022-09-09T23:00:35.951Z,99.90
2022-09-09T23:03:02.956Z,99.90
2022-09-09T23:05:30.713Z,99.90
2022-09-09T23:07:58.452Z,99.90
2022-09-09T23:10:31.924Z,99.90
2022-09-09T23:12:59.234Z,99.90
2022-09-09T23:15:26.034Z,99.90
2022-09-09T23:17:54.961Z,99.90
2022-09-09T23:20:22.275Z,99.90
2022-09-09T23:22:49.093Z,99.90
2022-09-09T23:25:15.935Z,99.90
2022-09-09T23:27:42.852Z,99.90
2022-09-09T23:30:11.697Z,99.90
2022-09-09T23:32:38.963Z,99.90
2022-09-09T23:35:07.590Z,99.90
2022-09-09T23:37:34.947Z,99.90
2022-09-09T23:40:02.135Z,99.90
2022-09-09T23:42:33.551Z,99.90
2022-09-09T23:45:00.426Z,99.90
2022-09-09T23:47:28.375Z,99.90
2022-09-09T23:49:55.425Z,99.90
2022-09-09T23:52:25.249Z,99.90
2022-09-09T23:54:52.317Z,99.90
2022-09-09T23:57:19.178Z,99.90
2022-09-09T23:59:46.022Z,99.90
